sensor_id;sensor_type;location;lat;lon;timestamp;temperature;humidity
666;DHT22;315;48.738;9.126;2022-09-30T00:01:40;8.80;99.90
666;DHT22;315;48.738;9.126;2022-09-30T00:04:08;8.80;99.90
666;DHT22;315;48.738;9.126;2022-09-30T00:06:34;8.70;99.90
666;DHT22;315;48.738;9.126;2022-09-30T00:09:00;8.70;99.90
666;DHT22;315;48.738;9.126;2022-09-30T00:11:29;8.80;99.90
666;DHT22;315;48.738;9.126;2022-09-30T00:13:56;8.90;99.90
666;DHT22;315;48.738;9.126;2022-09-30T00:16:24;8.80;99.90
666;DHT22;315;48.738;9.126;2022-09-30T00:18:53;8.80;99.90
666;DHT22;315;48.738;9.126;2022-09-30T00:21:20;8.80;99.90
666;DHT22;315;48.738;9.126;2022-09-30T00:23:45;8.80;99.90
666;DHT22;315;48.738;9.126;2022-09-30T00:26:13;8.80;99.90
666;DHT22;315;48.738;9.126;2022-09-30T00:28:40;8.90;99.90
666;DHT22;315;48.738;9.126;2022-09-30T00:31:09;8.80;99.90
666;DHT22;315;48.738;9.126;2022-09-30T00:33:35;8.90;99.90
666;DHT22;315;48.738;9.126;2022-09-30T00:36:02;8.90;99.90
666;DHT22;315;48.738;9.126;2022-09-30T00:38:28;9.00;99.90
666;DHT22;315;48.738;9.126;2022-09-30T00:40:54;9.20;99.90
666;DHT22;315;48.738;9.126;2022-09-30T00:43:40;9.10;99.90
666;DHT22;315;48.738;9.126;2022-09-30T00:48:42;9.00;99.90
666;DHT22;315;48.738;9.126;2022-09-30T00:51:08;9.00;99.90
666;DHT22;315;48.738;9.126;2022-09-30T00:53:50;9.00;99.90
666;DHT22;315;48.738;9.126;2022-09-30T00:56:20;9.00;99.90
666;DHT22;315;48.738;9.126;2022-09-30T00:58:50;9.10;99.90
666;DHT22;315;48.738;9.126;2022-09-30T01:01:17;9.10;99.90
666;DHT22;315;48.738;9.126;2022-09-30T01:03:59;9.10;99.90
666;DHT22;315;48.738;9.126;2022-09-30T01:06:25;9.10;99.90
666;DHT22;315;48.738;9.126;2022-09-30T01:08:51;9.10;99.90
666;DHT22;315;48.738;9.126;2022-09-30T01:11:17;9.20;99.90
666;DHT22;315;48.738;9.126;2022-09-30T01:13:47;9.30;99.90
666;DHT22;315;48.738;9.126;2022-09-30T01:30:19;9.10;99.90
666;DHT22;315;48.738;9.126;2022-09-30T01:32:56;9.00;99.90
666;DHT22;315;48.738;9.126;2022-09-30T01:35:38;9.00;99.90
666;DHT22;315;48.738;9.126;2022-09-30T01:43:45;9.10;99.90
666;DHT22;315;48.738;9.126;2022-09-30T01:46:24;9.10;99.90
666;DHT22;315;48.738;9.126;2022-09-30T01:49:30;9.10;99.90
666;DHT22;315;48.738;9.126;2022-09-30T01:52:22;9.10;99.90
666;DHT22;315;48.738;9.126;2022-09-30T02:00:21;9.10;99.90
666;DHT22;315;48.738;9.126;2022-09-30T02:03:01;9.10;99.90
666;DHT22;315;48.738;9.126;2022-09-30T02:08:00;9.10;99.90
666;DHT22;315;48.738;9.126;2022-09-30T02:10:32;9.10;99.90
666;DHT22;315;48.738;9.126;2022-09-30T02:13:24;9.20;99.90
666;DHT22;315;48.738;9.126;2022-09-30T02:15:56;9.20;99.90
666;DHT22;315;48.738;9.126;2022-09-30T02:18:34;9.20;99.90
666;DHT22;315;48.738;9.126;2022-09-30T02:21:03;9.20;99.90
666;DHT22;315;48.738;9.126;2022-09-30T02:23:32;9.20;99.90
666;DHT22;315;48.738;9.126;2022-09-30T02:26:16;9.20;99.90
666;DHT22;315;48.738;9.126;2022-09-30T02:29:00;9.20;99.90
666;DHT22;315;48.738;9.126;2022-09-30T02:31:31;9.20;99.90
666;DHT22;315;48.738;9.126;2022-09-30T02:37:24;9.10;99.90
666;DHT22;315;48.738;9.126;2022-09-30T02:40:10;9.10;99.90
666;DHT22;315;48.738;9.126;2022-09-30T02:42:38;9.00;99.90
666;DHT22;315;48.738;9.126;2022-09-30T02:45:08;9.00;99.90
666;DHT22;315;48.738;9.126;2022-09-30T02:47:58;9.20;99.90
666;DHT22;315;48.738;9.126;2022-09-30T02:50:46;9.20;99.90
666;DHT22;315;48.738;9.126;2022-09-30T02:53:25;9.10;99.90
666;DHT22;315;48.738;9.126;2022-09-30T02:56:24;9.10;99.90
666;DHT22;315;48.738;9.126;2022-09-30T02:58:52;9.00;99.90
666;DHT22;315;48.738;9.126;2022-09-30T03:01:18;9.00;99.90
666;DHT22;315;48.738;9.126;2022-09-30T03:03:53;8.90;99.90
666;DHT22;315;48.738;9.126;2022-09-30T03:06:21;8.90;99.90
666;DHT22;315;48.738;9.126;2022-09-30T03:08:47;8.90;99.90
666;DHT22;315;48.738;9.126;2022-09-30T03:11:17;8.90;99.90
666;DHT22;315;48.738;9.126;2022-09-30T03:14:07;8.90;99.90
666;DHT22;315;48.738;9.126;2022-09-30T03:22:10;8.90;99.90
666;DHT22;315;48.738;9.126;2022-09-30T03:27:24;9.00;99.90
666;DHT22;315;48.738;9.126;2022-09-30T03:30:04;9.00;99.90
666;DHT22;315;48.738;9.126;2022-09-30T03:32:49;8.90;99.90
666;DHT22;315;48.738;9.126;2022-09-30T03:41:19;8.70;99.90
666;DHT22;315;48.738;9.126;2022-09-30T03:43:53;8.60;99.90
666;DHT22;315;48.738;9.126;2022-09-30T03:46:25;8.60;99.90
666;DHT22;315;48.738;9.126;2022-09-30T03:48:56;8.70;99.90
666;DHT22;315;48.738;9.126;2022-09-30T03:51:23;8.80;99.90
666;DHT22;315;48.738;9.126;2022-09-30T03:53:50;8.80;99.90
666;DHT22;315;48.738;9.126;2022-09-30T03:56:27;8.70;99.90
666;DHT22;315;48.738;9.126;2022-09-30T03:58:54;8.60;99.90
666;DHT22;315;48.738;9.126;2022-09-30T04:01:21;8.60;99.90
666;DHT22;315;48.738;9.126;2022-09-30T04:03:48;8.60;99.90
666;DHT22;315;48.738;9.126;2022-09-30T04:06:17;8.70;99.90
666;DHT22;315;48.738;9.126;2022-09-30T04:08:43;8.70;99.90
666;DHT22;315;48.738;9.126;2022-09-30T04:11:09;8.70;99.90
666;DHT22;315;48.738;9.126;2022-09-30T04:13:34;8.80;99.90
666;DHT22;315;48.738;9.126;2022-09-30T04:16:00;8.80;99.90
666;DHT22;315;48.738;9.126;2022-09-30T04:18:26;8.80;99.90
666;DHT22;315;48.738;9.126;2022-09-30T04:20:51;8.80;99.90
666;DHT22;315;48.738;9.126;2022-09-30T04:23:17;8.80;99.90
666;DHT22;315;48.738;9.126;2022-09-30T04:25:42;8.80;99.90
666;DHT22;315;48.738;9.126;2022-09-30T04:28:08;8.80;99.90
666;DHT22;315;48.738;9.126;2022-09-30T04:30:33;8.70;99.90
666;DHT22;315;48.738;9.126;2022-09-30T04:32:59;8.60;99.90
666;DHT22;315;48.738;9.126;2022-09-30T04:35:25;8.60;99.90
666;DHT22;315;48.738;9.126;2022-09-30T04:37:53;8.60;99.90
666;DHT22;315;48.738;9.126;2022-09-30T04:40:19;8.50;99.90
666;DHT22;315;48.738;9.126;2022-09-30T04:42:45;8.60;99.90
666;DHT22;315;48.738;9.126;2022-09-30T04:45:12;8.60;99.90
666;DHT22;315;48.738;9.126;2022-09-30T04:47:42;8.50;99.90
666;DHT22;315;48.738;9.126;2022-09-30T04:50:08;8.50;99.90
666;DHT22;315;48.738;9.126;2022-09-30T04:52:34;8.50;99.90
666;DHT22;315;48.738;9.126;2022-09-30T04:54:59;8.40;99.90
666;DHT22;315;48.738;9.126;2022-09-30T04:57:25;8.20;99.90
666;DHT22;315;48.738;9.126;2022-09-30T04:59:51;8.20;99.90
666;DHT22;315;48.738;9.126;2022-09-30T05:02:17;8.10;99.90
666;DHT22;315;48.738;9.126;2022-09-30T05:04:43;8.10;99.90
666;DHT22;315;48.738;9.126;2022-09-30T05:07:08;8.00;99.90
666;DHT22;315;48.738;9.126;2022-09-30T05:09:34;8.00;99.90
666;DHT22;315;48.738;9.126;2022-09-30T05:12:00;8.00;99.90
666;DHT22;315;48.738;9.126;2022-09-30T05:14:28;8.10;99.90
666;DHT22;315;48.738;9.126;2022-09-30T05:16:54;8.10;99.90
666;DHT22;315;48.738;9.126;2022-09-30T05:19:20;8.00;99.90
666;DHT22;315;48.738;9.126;2022-09-30T05:21:45;8.00;99.90
666;DHT22;315;48.738;9.126;2022-09-30T05:24:11;8.00;99.90
666;DHT22;315;48.738;9.126;2022-09-30T05:26:37;8.10;99.90
666;DHT22;315;48.738;9.126;2022-09-30T05:29:04;8.10;99.90
666;DHT22;315;48.738;9.126;2022-09-30T05:31:30;8.10;99.90
666;DHT22;315;48.738;9.126;2022-09-30T05:33:55;8.10;99.90
666;DHT22;315;48.738;9.126;2022-09-30T05:36:21;8.00;99.90
666;DHT22;315;48.738;9.126;2022-09-30T05:38:50;8.00;99.90
666;DHT22;315;48.738;9.126;2022-09-30T05:41:16;8.00;99.90
666;DHT22;315;48.738;9.126;2022-09-30T05:43:43;8.10;99.90
666;DHT22;315;48.738;9.126;2022-09-30T05:46:13;8.10;99.90
666;DHT22;315;48.738;9.126;2022-09-30T05:48:39;8.10;99.90
666;DHT22;315;48.738;9.126;2022-09-30T05:51:05;8.10;99.90
666;DHT22;315;48.738;9.126;2022-09-30T05:53:31;8.20;99.90
666;DHT22;315;48.738;9.126;2022-09-30T05:55:57;8.40;99.90
666;DHT22;315;48.738;9.126;2022-09-30T05:58:22;8.60;99.90
666;DHT22;315;48.738;9.126;2022-09-30T06:00:49;8.80;99.90
666;DHT22;315;48.738;9.126;2022-09-30T06:03:15;9.10;99.90
666;DHT22;315;48.738;9.126;2022-09-30T06:05:41;9.30;99.90
666;DHT22;315;48.738;9.126;2022-09-30T06:08:07;9.50;99.90
666;DHT22;315;48.738;9.126;2022-09-30T06:10:34;9.60;99.90
666;DHT22;315;48.738;9.126;2022-09-30T06:13:02;9.90;99.90
666;DHT22;315;48.738;9.126;2022-09-30T06:15:27;10.00;99.90
666;DHT22;315;48.738;9.126;2022-09-30T06:17:53;10.20;99.90
666;DHT22;315;48.738;9.126;2022-09-30T06:20:19;10.50;99.90
666;DHT22;315;48.738;9.126;2022-09-30T06:22:45;10.60;99.90
666;DHT22;315;48.738;9.126;2022-09-30T06:25:10;10.70;99.90
666;DHT22;315;48.738;9.126;2022-09-30T06:27:36;11.00;99.90
666;DHT22;315;48.738;9.126;2022-09-30T06:30:03;11.40;99.90
666;DHT22;315;48.738;9.126;2022-09-30T06:32:29;11.80;99.90
666;DHT22;315;48.738;9.126;2022-09-30T06:34:55;12.30;99.90
666;DHT22;315;48.738;9.126;2022-09-30T06:37:22;12.10;99.90
666;DHT22;315;48.738;9.126;2022-09-30T06:39:48;12.10;99.90
666;DHT22;315;48.738;9.126;2022-09-30T06:42:15;12.00;99.90
666;DHT22;315;48.738;9.126;2022-09-30T06:44:41;12.10;99.90
666;DHT22;315;48.738;9.126;2022-09-30T06:47:06;12.10;99.90
666;DHT22;315;48.738;9.126;2022-09-30T06:49:32;12.30;99.90
666;DHT22;315;48.738;9.126;2022-09-30T06:51:58;12.40;99.90
666;DHT22;315;48.738;9.126;2022-09-30T06:54:26;12.50;99.90
666;DHT22;315;48.738;9.126;2022-09-30T06:56:53;12.60;99.90
666;DHT22;315;48.738;9.126;2022-09-30T06:59:24;12.70;99.90
666;DHT22;315;48.738;9.126;2022-09-30T07:01:51;12.60;99.90
666;DHT22;315;48.738;9.126;2022-09-30T07:04:17;12.50;99.90
666;DHT22;315;48.738;9.126;2022-09-30T07:06:42;12.40;99.90
666;DHT22;315;48.738;9.126;2022-09-30T07:09:09;12.30;99.90
666;DHT22;315;48.738;9.126;2022-09-30T07:11:35;12.30;99.90
666;DHT22;315;48.738;9.126;2022-09-30T07:14:02;12.30;99.90
666;DHT22;315;48.738;9.126;2022-09-30T07:16:29;12.40;99.90
666;DHT22;315;48.738;9.126;2022-09-30T07:18:56;12.40;99.90
666;DHT22;315;48.738;9.126;2022-09-30T07:21:23;12.50;99.90
666;DHT22;315;48.738;9.126;2022-09-30T07:23:49;12.40;99.90
666;DHT22;315;48.738;9.126;2022-09-30T07:26:19;12.40;99.90
666;DHT22;315;48.738;9.126;2022-09-30T07:28:45;12.60;99.90
666;DHT22;315;48.738;9.126;2022-09-30T07:31:14;12.40;99.90
666;DHT22;315;48.738;9.126;2022-09-30T07:33:41;12.30;99.90
666;DHT22;315;48.738;9.126;2022-09-30T07:36:08;11.80;99.90
666;DHT22;315;48.738;9.126;2022-09-30T07:38:37;11.60;99.90
666;DHT22;315;48.738;9.126;2022-09-30T07:43:32;11.80;99.90
666;DHT22;315;48.738;9.126;2022-09-30T07:48:30;12.10;99.90
666;DHT22;315;48.738;9.126;2022-09-30T07:51:33;12.10;99.90
666;DHT22;315;48.738;9.126;2022-09-30T07:54:08;12.20;99.90
666;DHT22;315;48.738;9.126;2022-09-30T07:56:34;11.80;99.90
666;DHT22;315;48.738;9.126;2022-09-30T07:59:03;11.60;99.90
666;DHT22;315;48.738;9.126;2022-09-30T08:01:30;11.60;99.90
666;DHT22;315;48.738;9.126;2022-09-30T08:03:57;11.50;99.90
666;DHT22;315;48.738;9.126;2022-09-30T08:06:24;11.40;99.90
666;DHT22;315;48.738;9.126;2022-09-30T08:08:53;11.50;99.90
666;DHT22;315;48.738;9.126;2022-09-30T08:11:20;11.50;99.90
666;DHT22;315;48.738;9.126;2022-09-30T08:13:53;11.40;99.90
666;DHT22;315;48.738;9.126;2022-09-30T08:16:20;11.40;99.90
666;DHT22;315;48.738;9.126;2022-09-30T08:18:45;11.50;99.90
666;DHT22;315;48.738;9.126;2022-09-30T08:21:11;11.50;99.90
666;DHT22;315;48.738;9.126;2022-09-30T08:23:37;11.50;99.90
666;DHT22;315;48.738;9.126;2022-09-30T08:26:05;11.80;99.90
666;DHT22;315;48.738;9.126;2022-09-30T08:28:31;12.10;99.90
666;DHT22;315;48.738;9.126;2022-09-30T08:31:08;12.30;99.90
666;DHT22;315;48.738;9.126;2022-09-30T08:33:34;12.60;99.90
666;DHT22;315;48.738;9.126;2022-09-30T08:36:05;12.80;99.90
666;DHT22;315;48.738;9.126;2022-09-30T08:38:31;13.00;99.90
666;DHT22;315;48.738;9.126;2022-09-30T08:41:30;13.00;99.90
666;DHT22;315;48.738;9.126;2022-09-30T08:52:42;13.10;99.90
666;DHT22;315;48.738;9.126;2022-09-30T08:55:21;13.50;99.90
666;DHT22;315;48.738;9.126;2022-09-30T08:57:48;14.40;99.90
666;DHT22;315;48.738;9.126;2022-09-30T09:00:16;15.20;99.90
666;DHT22;315;48.738;9.126;2022-09-30T09:02:47;16.30;99.90
666;DHT22;315;48.738;9.126;2022-09-30T09:07:57;18.90;99.90
666;DHT22;315;48.738;9.126;2022-09-30T09:10:29;19.90;99.90
666;DHT22;315;48.738;9.126;2022-09-30T09:13:07;20.10;99.90
666;DHT22;315;48.738;9.126;2022-09-30T09:15:38;20.80;99.90
666;DHT22;315;48.738;9.126;2022-09-30T09:18:45;21.90;99.90
666;DHT22;315;48.738;9.126;2022-09-30T09:24:05;22.70;97.50
666;DHT22;315;48.738;9.126;2022-09-30T09:26:36;22.30;97.90
666;DHT22;315;48.738;9.126;2022-09-30T09:29:37;23.00;96.00
666;DHT22;315;48.738;9.126;2022-09-30T09:32:12;23.20;94.70
666;DHT22;315;48.738;9.126;2022-09-30T09:34:38;23.20;94.30
666;DHT22;315;48.738;9.126;2022-09-30T09:37:20;24.10;93.30
666;DHT22;315;48.738;9.126;2022-09-30T09:39:59;24.80;91.40
666;DHT22;315;48.738;9.126;2022-09-30T09:42:41;25.60;88.40
666;DHT22;315;48.738;9.126;2022-09-30T09:45:27;24.90;86.10
666;DHT22;315;48.738;9.126;2022-09-30T09:47:55;24.20;85.80
666;DHT22;315;48.738;9.126;2022-09-30T09:53:20;22.90;90.60
666;DHT22;315;48.738;9.126;2022-09-30T09:55:48;24.20;86.90
666;DHT22;315;48.738;9.126;2022-09-30T09:58:18;24.70;84.50
666;DHT22;315;48.738;9.126;2022-09-30T10:00:43;24.80;83.70
666;DHT22;315;48.738;9.126;2022-09-30T10:03:15;25.10;80.80
666;DHT22;315;48.738;9.126;2022-09-30T10:06:06;25.10;79.90
666;DHT22;315;48.738;9.126;2022-09-30T10:08:35;24.60;79.80
666;DHT22;315;48.738;9.126;2022-09-30T10:11:06;24.30;81.20
666;DHT22;315;48.738;9.126;2022-09-30T10:13:40;23.70;82.60
666;DHT22;315;48.738;9.126;2022-09-30T10:18:50;22.40;84.20
666;DHT22;315;48.738;9.126;2022-09-30T10:21:24;23.70;84.40
666;DHT22;315;48.738;9.126;2022-09-30T10:23:50;25.90;80.60
666;DHT22;315;48.738;9.126;2022-09-30T10:26:17;27.40;78.20
666;DHT22;315;48.738;9.126;2022-09-30T10:29:20;28.10;73.70
666;DHT22;315;48.738;9.126;2022-09-30T10:31:42;28.30;68.20
666;DHT22;315;48.738;9.126;2022-09-30T10:34:10;26.40;67.80
666;DHT22;315;48.738;9.126;2022-09-30T10:36:39;24.80;73.30
666;DHT22;315;48.738;9.126;2022-09-30T10:39:07;26.10;70.40
666;DHT22;315;48.738;9.126;2022-09-30T10:41:36;27.30;68.70
666;DHT22;315;48.738;9.126;2022-09-30T10:44:21;29.60;64.20
666;DHT22;315;48.738;9.126;2022-09-30T10:46:49;32.20;59.30
666;DHT22;315;48.738;9.126;2022-09-30T10:49:25;30.40;57.20
666;DHT22;315;48.738;9.126;2022-09-30T10:51:51;29.50;57.70
666;DHT22;315;48.738;9.126;2022-09-30T10:57:23;31.70;53.90
666;DHT22;315;48.738;9.126;2022-09-30T10:59:53;32.90;51.70
666;DHT22;315;48.738;9.126;2022-09-30T11:05:21;30.00;52.80
666;DHT22;315;48.738;9.126;2022-09-30T11:18:30;30.80;50.40
666;DHT22;315;48.738;9.126;2022-09-30T11:21:02;31.60;48.20
666;DHT22;315;48.738;9.126;2022-09-30T11:23:45;32.40;47.70
666;DHT22;315;48.738;9.126;2022-09-30T11:26:32;32.90;47.00
666;DHT22;315;48.738;9.126;2022-09-30T11:40:34;29.70;38.20
666;DHT22;315;48.738;9.126;2022-09-30T11:43:13;28.40;40.10
666;DHT22;315;48.738;9.126;2022-09-30T11:46:03;30.60;39.60
666;DHT22;315;48.738;9.126;2022-09-30T11:51:12;33.20;38.20
666;DHT22;315;48.738;9.126;2022-09-30T11:54:14;32.30;36.80
666;DHT22;315;48.738;9.126;2022-09-30T11:59:29;35.10;35.60
666;DHT22;315;48.738;9.126;2022-09-30T12:02:00;35.60;34.30
666;DHT22;315;48.738;9.126;2022-09-30T12:04:38;35.50;33.80
666;DHT22;315;48.738;9.126;2022-09-30T12:07:17;36.00;33.70
666;DHT22;315;48.738;9.126;2022-09-30T12:09:48;36.20;32.20
666;DHT22;315;48.738;9.126;2022-09-30T12:12:18;36.40;32.40
666;DHT22;315;48.738;9.126;2022-09-30T12:14:51;36.30;31.90
666;DHT22;315;48.738;9.126;2022-09-30T12:17:28;37.30;30.30
666;DHT22;315;48.738;9.126;2022-09-30T12:19:58;37.50;29.80
666;DHT22;315;48.738;9.126;2022-09-30T12:22:40;36.60;28.80
666;DHT22;315;48.738;9.126;2022-09-30T12:25:20;36.70;29.40
666;DHT22;315;48.738;9.126;2022-09-30T12:30:21;38.20;27.80
666;DHT22;315;48.738;9.126;2022-09-30T12:36:13;39.00;27.10
666;DHT22;315;48.738;9.126;2022-09-30T12:49:32;32.80;30.50
666;DHT22;315;48.738;9.126;2022-09-30T12:52:03;33.20;30.20
666;DHT22;315;48.738;9.126;2022-09-30T12:54:35;31.20;30.50
666;DHT22;315;48.738;9.126;2022-09-30T12:57:04;28.40;33.50
666;DHT22;315;48.738;9.126;2022-09-30T12:59:36;27.20;35.00
666;DHT22;315;48.738;9.126;2022-09-30T13:02:04;25.40;37.20
666;DHT22;315;48.738;9.126;2022-09-30T13:04:31;23.40;40.00
666;DHT22;315;48.738;9.126;2022-09-30T13:09:35;21.90;43.30
666;DHT22;315;48.738;9.126;2022-09-30T13:19:39;20.80;45.70
666;DHT22;315;48.738;9.126;2022-09-30T13:30:01;21.10;44.60
666;DHT22;315;48.738;9.126;2022-09-30T13:32:45;21.30;44.50
666;DHT22;315;48.738;9.126;2022-09-30T13:40:55;20.10;48.10
666;DHT22;315;48.738;9.126;2022-09-30T13:43:31;20.20;48.60
666;DHT22;315;48.738;9.126;2022-09-30T13:45:58;19.80;49.70
666;DHT22;315;48.738;9.126;2022-09-30T13:48:34;19.60;49.90
666;DHT22;315;48.738;9.126;2022-09-30T13:51:06;19.50;49.30
666;DHT22;315;48.738;9.126;2022-09-30T13:53:41;19.50;50.60
666;DHT22;315;48.738;9.126;2022-09-30T13:56:48;19.70;50.40
666;DHT22;315;48.738;9.126;2022-09-30T14:11:01;19.60;50.70
666;DHT22;315;48.738;9.126;2022-09-30T14:13:48;19.60;50.40
666;DHT22;315;48.738;9.126;2022-09-30T14:21:55;19.80;51.70
666;DHT22;315;48.738;9.126;2022-09-30T14:24:26;19.80;51.90
666;DHT22;315;48.738;9.126;2022-09-30T14:30:12;19.70;52.20
666;DHT22;315;48.738;9.126;2022-09-30T14:35:19;19.20;52.50
666;DHT22;315;48.738;9.126;2022-09-30T14:37:47;19.10;53.20
666;DHT22;315;48.738;9.126;2022-09-30T14:40:23;18.90;54.00
666;DHT22;315;48.738;9.126;2022-09-30T14:42:49;19.10;54.60
666;DHT22;315;48.738;9.126;2022-09-30T14:45:25;19.30;53.80
666;DHT22;315;48.738;9.126;2022-09-30T14:47:54;19.40;54.10
666;DHT22;315;48.738;9.126;2022-09-30T14:50:28;19.40;53.70
666;DHT22;315;48.738;9.126;2022-09-30T14:52:55;18.70;54.90
666;DHT22;315;48.738;9.126;2022-09-30T14:55:32;18.60;55.00
666;DHT22;315;48.738;9.126;2022-09-30T14:58:25;18.40;56.00
666;DHT22;315;48.738;9.126;2022-09-30T15:01:04;18.30;57.10
666;DHT22;315;48.738;9.126;2022-09-30T15:03:33;18.30;56.60
666;DHT22;315;48.738;9.126;2022-09-30T15:05:59;18.30;56.40
666;DHT22;315;48.738;9.126;2022-09-30T15:08:25;18.20;55.70
666;DHT22;315;48.738;9.126;2022-09-30T15:10:53;18.10;55.00
666;DHT22;315;48.738;9.126;2022-09-30T15:13:28;17.70;55.90
666;DHT22;315;48.738;9.126;2022-09-30T15:15:56;17.60;59.80
666;DHT22;315;48.738;9.126;2022-09-30T15:18:33;17.50;60.00
666;DHT22;315;48.738;9.126;2022-09-30T15:21:12;17.40;58.90
666;DHT22;315;48.738;9.126;2022-09-30T15:23:41;17.20;59.70
666;DHT22;315;48.738;9.126;2022-09-30T15:26:10;17.20;60.90
666;DHT22;315;48.738;9.126;2022-09-30T15:28:36;17.20;62.10
666;DHT22;315;48.738;9.126;2022-09-30T15:31:05;17.20;65.90
666;DHT22;315;48.738;9.126;2022-09-30T15:33:33;17.10;63.00
666;DHT22;315;48.738;9.126;2022-09-30T15:36:11;17.00;64.60
666;DHT22;315;48.738;9.126;2022-09-30T15:38:38;16.90;69.30
666;DHT22;315;48.738;9.126;2022-09-30T15:41:09;16.80;69.70
666;DHT22;315;48.738;9.126;2022-09-30T15:43:39;16.80;71.80
666;DHT22;315;48.738;9.126;2022-09-30T15:46:17;16.70;71.80
666;DHT22;315;48.738;9.126;2022-09-30T15:48:44;16.70;73.90
666;DHT22;315;48.738;9.126;2022-09-30T15:51:30;16.50;80.20
666;DHT22;315;48.738;9.126;2022-09-30T15:54:00;16.40;81.50
666;DHT22;315;48.738;9.126;2022-09-30T15:56:35;16.30;80.20
666;DHT22;315;48.738;9.126;2022-09-30T15:59:07;16.30;82.30
666;DHT22;315;48.738;9.126;2022-09-30T16:01:44;16.20;84.90
666;DHT22;315;48.738;9.126;2022-09-30T16:04:21;16.20;87.00
666;DHT22;315;48.738;9.126;2022-09-30T16:06:56;16.10;90.20
666;DHT22;315;48.738;9.126;2022-09-30T16:09:31;16.00;91.60
666;DHT22;315;48.738;9.126;2022-09-30T16:14:53;15.70;94.20
666;DHT22;315;48.738;9.126;2022-09-30T16:17:32;15.60;94.70
666;DHT22;315;48.738;9.126;2022-09-30T16:20:26;15.60;97.50
666;DHT22;315;48.738;9.126;2022-09-30T16:22:52;15.40;97.60
666;DHT22;315;48.738;9.126;2022-09-30T16:25:28;15.20;99.90
666;DHT22;315;48.738;9.126;2022-09-30T16:28:11;15.10;99.90
666;DHT22;315;48.738;9.126;2022-09-30T16:30:42;14.80;99.90
666;DHT22;315;48.738;9.126;2022-09-30T16:33:09;14.80;99.90
666;DHT22;315;48.738;9.126;2022-09-30T16:35:36;14.70;99.90
666;DHT22;315;48.738;9.126;2022-09-30T16:38:04;14.70;99.90
666;DHT22;315;48.738;9.126;2022-09-30T16:40:31;14.60;99.90
666;DHT22;315;48.738;9.126;2022-09-30T16:42:57;14.50;99.90
666;DHT22;315;48.738;9.126;2022-09-30T16:45:24;14.40;99.90
666;DHT22;315;48.738;9.126;2022-09-30T16:47:50;14.30;99.90
666;DHT22;315;48.738;9.126;2022-09-30T16:53:08;14.20;99.90
666;DHT22;315;48.738;9.126;2022-09-30T16:55:35;14.10;99.90
666;DHT22;315;48.738;9.126;2022-09-30T16:58:00;14.00;99.90
666;DHT22;315;48.738;9.126;2022-09-30T17:00:27;13.90;99.90
666;DHT22;315;48.738;9.126;2022-09-30T17:02:53;13.80;99.90
666;DHT22;315;48.738;9.126;2022-09-30T17:05:21;13.70;99.90
666;DHT22;315;48.738;9.126;2022-09-30T17:07:59;13.70;99.90
666;DHT22;315;48.738;9.126;2022-09-30T17:10:28;13.60;99.90
666;DHT22;315;48.738;9.126;2022-09-30T17:12:55;13.50;99.90
666;DHT22;315;48.738;9.126;2022-09-30T17:15:21;13.50;99.90
666;DHT22;315;48.738;9.126;2022-09-30T17:17:47;13.40;99.90
666;DHT22;315;48.738;9.126;2022-09-30T17:20:13;13.30;99.90
666;DHT22;315;48.738;9.126;2022-09-30T17:22:39;13.30;99.90
666;DHT22;315;48.738;9.126;2022-09-30T17:25:05;13.10;99.90
666;DHT22;315;48.738;9.126;2022-09-30T17:27:31;13.00;99.90
666;DHT22;315;48.738;9.126;2022-09-30T17:29:57;13.00;99.90
666;DHT22;315;48.738;9.126;2022-09-30T17:32:22;13.00;99.90
666;DHT22;315;48.738;9.126;2022-09-30T17:34:48;12.90;99.90
666;DHT22;315;48.738;9.126;2022-09-30T17:37:13;12.90;99.90
666;DHT22;315;48.738;9.126;2022-09-30T17:39:39;12.80;99.90
666;DHT22;315;48.738;9.126;2022-09-30T17:42:07;12.80;99.90
666;DHT22;315;48.738;9.126;2022-09-30T17:44:53;12.80;99.90
666;DHT22;315;48.738;9.126;2022-09-30T17:47:18;12.60;99.90
666;DHT22;315;48.738;9.126;2022-09-30T17:49:45;12.50;99.90
666;DHT22;315;48.738;9.126;2022-09-30T17:52:11;12.50;99.90
666;DHT22;315;48.738;9.126;2022-09-30T17:54:38;12.40;99.90
666;DHT22;315;48.738;9.126;2022-09-30T17:57:04;12.40;99.90
666;DHT22;315;48.738;9.126;2022-09-30T17:59:30;12.30;99.90
666;DHT22;315;48.738;9.126;2022-09-30T18:01:55;12.30;99.90
666;DHT22;315;48.738;9.126;2022-09-30T18:04:21;12.20;99.90
666;DHT22;315;48.738;9.126;2022-09-30T18:06:51;12.10;99.90
666;DHT22;315;48.738;9.126;2022-09-30T18:09:16;12.10;99.90
666;DHT22;315;48.738;9.126;2022-09-30T18:11:42;12.10;99.90
666;DHT22;315;48.738;9.126;2022-09-30T18:14:09;12.10;99.90
666;DHT22;315;48.738;9.126;2022-09-30T18:16:35;11.90;99.90
666;DHT22;315;48.738;9.126;2022-09-30T18:19:02;11.90;99.90
666;DHT22;315;48.738;9.126;2022-09-30T18:21:28;11.90;99.90
666;DHT22;315;48.738;9.126;2022-09-30T18:23:54;11.90;99.90
666;DHT22;315;48.738;9.126;2022-09-30T18:26:27;12.00;99.90
666;DHT22;315;48.738;9.126;2022-09-30T18:28:53;11.70;99.90
666;DHT22;315;48.738;9.126;2022-09-30T18:31:20;11.60;99.90
666;DHT22;315;48.738;9.126;2022-09-30T18:33:56;11.60;99.90
666;DHT22;315;48.738;9.126;2022-09-30T18:36:25;11.50;99.90
666;DHT22;315;48.738;9.126;2022-09-30T18:38:52;11.40;99.90
666;DHT22;315;48.738;9.126;2022-09-30T18:41:18;11.40;99.90
666;DHT22;315;48.738;9.126;2022-09-30T18:43:44;11.30;99.90
666;DHT22;315;48.738;9.126;2022-09-30T18:46:10;11.30;99.90
666;DHT22;315;48.738;9.126;2022-09-30T18:48:37;11.20;99.90
666;DHT22;315;48.738;9.126;2022-09-30T18:51:04;11.20;99.90
666;DHT22;315;48.738;9.126;2022-09-30T18:53:30;11.20;99.90
666;DHT22;315;48.738;9.126;2022-09-30T18:56:02;11.20;99.90
666;DHT22;315;48.738;9.126;2022-09-30T18:58:28;11.10;99.90
666;DHT22;315;48.738;9.126;2022-09-30T19:00:59;11.00;99.90
666;DHT22;315;48.738;9.126;2022-09-30T19:03:30;11.00;99.90
666;DHT22;315;48.738;9.126;2022-09-30T19:05:56;11.00;99.90
666;DHT22;315;48.738;9.126;2022-09-30T19:08:23;11.00;99.90
666;DHT22;315;48.738;9.126;2022-09-30T19:10:49;10.90;99.90
666;DHT22;315;48.738;9.126;2022-09-30T19:13:16;10.80;99.90
666;DHT22;315;48.738;9.126;2022-09-30T19:15:41;10.80;99.90
666;DHT22;315;48.738;9.126;2022-09-30T19:18:07;10.70;99.90
666;DHT22;315;48.738;9.126;2022-09-30T19:20:36;10.70;99.90
666;DHT22;315;48.738;9.126;2022-09-30T19:23:03;10.70;99.90
666;DHT22;315;48.738;9.126;2022-09-30T19:25:31;10.70;99.90
666;DHT22;315;48.738;9.126;2022-09-30T19:27:56;10.80;99.90
666;DHT22;315;48.738;9.126;2022-09-30T19:30:22;10.80;99.90
666;DHT22;315;48.738;9.126;2022-09-30T19:32:48;10.70;99.90
666;DHT22;315;48.738;9.126;2022-09-30T19:35:18;10.70;99.90
666;DHT22;315;48.738;9.126;2022-09-30T19:37:46;10.60;99.90
666;DHT22;315;48.738;9.126;2022-09-30T19:40:11;10.70;99.90
666;DHT22;315;48.738;9.126;2022-09-30T19:42:37;10.60;99.90
666;DHT22;315;48.738;9.126;2022-09-30T19:45:04;10.60;99.90
666;DHT22;315;48.738;9.126;2022-09-30T19:47:30;10.60;99.90
666;DHT22;315;48.738;9.126;2022-09-30T19:49:56;10.50;99.90
666;DHT22;315;48.738;9.126;2022-09-30T19:52:24;10.50;99.90
666;DHT22;315;48.738;9.126;2022-09-30T19:54:50;10.60;99.90
666;DHT22;315;48.738;9.126;2022-09-30T19:57:17;10.60;99.90